sensor_id;sensor_type;location;lat;lon;timestamp;pressure;altitude;pressure_sealevel;temperature;humidity
41862;BME280;27537;57.134;-2.136;2023-07-13T00:00:11;100169.84;;;16.86;100.00
41862;BME280;27537;57.134;-2.136;2023-07-13T00:02:38;100166.25;;;16.75;100.00
41862;BME280;27537;57.134;-2.136;2023-07-13T00:05:05;100159.00;;;16.65;100.00
41862;BME280;27537;57.134;-2.136;2023-07-13T00:07:34;100168.47;;;16.81;100.00
41862;BME280;27537;57.134;-2.136;2023-07-13T00:10:02;100172.16;;;16.78;100.00
41862;BME280;27537;57.134;-2.136;2023-07-13T00:12:32;100154.91;;;16.61;100.00
41862;BME280;27537;57.134;-2.136;2023-07-13T00:15:00;100163.00;;;16.71;100.00
41862;BME280;27537;57.134;-2.136;2023-07-13T00:17:28;100173.03;;;16.79;100.00
41862;BME280;27537;57.134;-2.136;2023-07-13T00:19:56;100169.88;;;16.74;100.00
41862;BME280;27537;57.134;-2.136;2023-07-13T00:22:23;100170.84;;;16.60;100.00
41862;BME280;27537;57.134;-2.136;2023-07-13T00:24:53;100157.75;;;16.58;100.00
41862;BME280;27537;57.134;-2.136;2023-07-13T00:27:23;100173.03;;;16.79;100.00
41862;BME280;27537;57.134;-2.136;2023-07-13T00:29:49;100166.88;;;16.78;100.00
41862;BME280;27537;57.134;-2.136;2023-07-13T00:32:16;100163.09;;;16.69;100.00
41862;BME280;27537;57.134;-2.136;2023-07-13T00:34:43;100164.53;;;16.49;100.00
41862;BME280;27537;57.134;-2.136;2023-07-13T00:37:10;100162.59;;;16.27;100.00
41862;BME280;27537;57.134;-2.136;2023-07-13T00:39:37;100165.00;;;16.30;100.00
41862;BME280;27537;57.134;-2.136;2023-07-13T00:42:05;100166.84;;;16.04;100.00
41862;BME280;27537;57.134;-2.136;2023-07-13T00:44:32;100172.09;;;16.17;100.00
41862;BME280;27537;57.134;-2.136;2023-07-13T00:46:59;100172.19;;;16.28;100.00
41862;BME280;27537;57.134;-2.136;2023-07-13T00:49:29;100172.06;;;16.43;100.00
41862;BME280;27537;57.134;-2.136;2023-07-13T00:52:00;100177.56;;;16.40;100.00
41862;BME280;27537;57.134;-2.136;2023-07-13T00:54:40;100177.56;;;16.40;100.00
41862;BME280;27537;57.134;-2.136;2023-07-13T00:57:11;100183.28;;;16.33;100.00
41862;BME280;27537;57.134;-2.136;2023-07-13T00:59:41;100173.88;;;16.29;100.00
41862;BME280;27537;57.134;-2.136;2023-07-13T01:02:10;100174.41;;;16.35;100.00
41862;BME280;27537;57.134;-2.136;2023-07-13T01:04:37;100172.41;;;16.25;100.00
41862;BME280;27537;57.134;-2.136;2023-07-13T01:07:06;100176.09;;;16.36;100.00
41862;BME280;27537;57.134;-2.136;2023-07-13T01:09:33;100174.16;;;16.38;100.00
41862;BME280;27537;57.134;-2.136;2023-07-13T01:12:00;100164.25;;;16.28;100.00
41862;BME280;27537;57.134;-2.136;2023-07-13T01:14:27;100162.06;;;16.22;100.00
41862;BME280;27537;57.134;-2.136;2023-07-13T01:16:54;100163.97;;;16.20;100.00
41862;BME280;27537;57.134;-2.136;2023-07-13T01:22:22;100167.09;;;16.25;100.00
41862;BME280;27537;57.134;-2.136;2023-07-13T01:24:54;100174.19;;;16.25;100.00
41862;BME280;27537;57.134;-2.136;2023-07-13T01:27:23;100169.25;;;16.07;100.00
41862;BME280;27537;57.134;-2.136;2023-07-13T01:29:52;100173.59;;;16.08;100.00
41862;BME280;27537;57.134;-2.136;2023-07-13T01:32:24;100177.50;;;16.03;100.00
41862;BME280;27537;57.134;-2.136;2023-07-13T01:34:52;100178.44;;;16.02;100.00
41862;BME280;27537;57.134;-2.136;2023-07-13T01:37:22;100181.50;;;16.08;100.00
41862;BME280;27537;57.134;-2.136;2023-07-13T01:39:48;100180.25;;;16.01;100.00
41862;BME280;27537;57.134;-2.136;2023-07-13T01:42:15;100181.00;;;15.90;100.00
41862;BME280;27537;57.134;-2.136;2023-07-13T01:44:42;100173.50;;;15.97;100.00
41862;BME280;27537;57.134;-2.136;2023-07-13T01:47:09;100164.28;;;15.90;100.00
41862;BME280;27537;57.134;-2.136;2023-07-13T01:49:36;100166.00;;;15.91;100.00
41862;BME280;27537;57.134;-2.136;2023-07-13T01:52:04;100173.91;;;16.04;100.00
41862;BME280;27537;57.134;-2.136;2023-07-13T01:54:31;100170.72;;;15.99;100.00
41862;BME280;27537;57.134;-2.136;2023-07-13T01:57:00;100182.78;;;16.03;100.00
41862;BME280;27537;57.134;-2.136;2023-07-13T01:59:27;100169.59;;;16.03;100.00
41862;BME280;27537;57.134;-2.136;2023-07-13T02:01:53;100173.81;;;16.05;100.00
41862;BME280;27537;57.134;-2.136;2023-07-13T02:04:20;100164.50;;;16.00;100.00
41862;BME280;27537;57.134;-2.136;2023-07-13T02:06:47;100171.69;;;15.98;100.00
41862;BME280;27537;57.134;-2.136;2023-07-13T02:09:14;100169.06;;;15.98;100.00
41862;BME280;27537;57.134;-2.136;2023-07-13T02:11:40;100163.88;;;15.83;100.00
41862;BME280;27537;57.134;-2.136;2023-07-13T02:14:07;100165.53;;;15.71;100.00
41862;BME280;27537;57.134;-2.136;2023-07-13T02:16:34;100179.09;;;15.92;100.00
41862;BME280;27537;57.134;-2.136;2023-07-13T02:19:00;100172.75;;;15.95;100.00
41862;BME280;27537;57.134;-2.136;2023-07-13T02:21:27;100174.00;;;15.89;100.00
41862;BME280;27537;57.134;-2.136;2023-07-13T02:23:54;100169.16;;;15.96;100.00
41862;BME280;27537;57.134;-2.136;2023-07-13T02:26:21;100179.72;;;16.09;100.00
41862;BME280;27537;57.134;-2.136;2023-07-13T02:28:47;100178.88;;;16.08;100.00
41862;BME280;27537;57.134;-2.136;2023-07-13T02:31:15;100180.56;;;15.97;100.00
41862;BME280;27537;57.134;-2.136;2023-07-13T02:33:42;100187.00;;;16.05;100.00
41862;BME280;27537;57.134;-2.136;2023-07-13T02:36:10;100167.91;;;15.89;100.00
41862;BME280;27537;57.134;-2.136;2023-07-13T02:38:38;100186.47;;;16.00;100.00
41862;BME280;27537;57.134;-2.136;2023-07-13T02:41:06;100181.63;;;15.94;100.00
41862;BME280;27537;57.134;-2.136;2023-07-13T02:43:35;100191.66;;;16.02;100.00
41862;BME280;27537;57.134;-2.136;2023-07-13T02:46:02;100189.00;;;15.89;100.00
41862;BME280;27537;57.134;-2.136;2023-07-13T02:48:35;100188.03;;;15.90;100.00
41862;BME280;27537;57.134;-2.136;2023-07-13T02:51:02;100174.56;;;15.82;100.00
41862;BME280;27537;57.134;-2.136;2023-07-13T02:53:29;100190.19;;;15.85;100.00
41862;BME280;27537;57.134;-2.136;2023-07-13T02:55:56;100185.41;;;15.90;100.00
41862;BME280;27537;57.134;-2.136;2023-07-13T02:58:23;100178.66;;;15.86;100.00
41862;BME280;27537;57.134;-2.136;2023-07-13T03:00:49;100171.56;;;15.86;100.00
41862;BME280;27537;57.134;-2.136;2023-07-13T03:03:16;100170.75;;;15.86;100.00
41862;BME280;27537;57.134;-2.136;2023-07-13T03:05:44;100170.66;;;15.74;100.00
41862;BME280;27537;57.134;-2.136;2023-07-13T03:08:11;100163.97;;;15.69;100.00
41862;BME280;27537;57.134;-2.136;2023-07-13T03:10:38;100170.69;;;15.60;100.00
41862;BME280;27537;57.134;-2.136;2023-07-13T03:13:06;100167.00;;;15.63;100.00
41862;BME280;27537;57.134;-2.136;2023-07-13T03:15:32;100168.91;;;15.61;100.00
41862;BME280;27537;57.134;-2.136;2023-07-13T03:17:59;100174.81;;;15.64;100.00
41862;BME280;27537;57.134;-2.136;2023-07-13T03:20:26;100168.38;;;15.68;100.00
41862;BME280;27537;57.134;-2.136;2023-07-13T03:22:53;100172.84;;;15.81;100.00
41862;BME280;27537;57.134;-2.136;2023-07-13T03:25:19;100178.94;;;15.68;100.00
41862;BME280;27537;57.134;-2.136;2023-07-13T03:27:46;100176.75;;;15.75;100.00
41862;BME280;27537;57.134;-2.136;2023-07-13T03:30:13;100175.75;;;15.63;100.00
41862;BME280;27537;57.134;-2.136;2023-07-13T03:32:39;100186.00;;;15.55;100.00
41862;BME280;27537;57.134;-2.136;2023-07-13T03:35:07;100178.38;;;15.50;100.00
41862;BME280;27537;57.134;-2.136;2023-07-13T03:37:34;100183.13;;;15.58;100.00
41862;BME280;27537;57.134;-2.136;2023-07-13T03:40:01;100174.81;;;15.51;100.00
41862;BME280;27537;57.134;-2.136;2023-07-13T03:42:28;100195.91;;;15.51;100.00
41862;BME280;27537;57.134;-2.136;2023-07-13T03:44:54;100192.19;;;15.41;100.00
41862;BME280;27537;57.134;-2.136;2023-07-13T03:47:21;100191.81;;;15.60;100.00
41862;BME280;27537;57.134;-2.136;2023-07-13T03:49:48;100187.56;;;15.70;100.00
41862;BME280;27537;57.134;-2.136;2023-07-13T03:52:14;100193.22;;;15.79;100.00
41862;BME280;27537;57.134;-2.136;2023-07-13T03:54:41;100192.59;;;15.75;100.00
41862;BME280;27537;57.134;-2.136;2023-07-13T03:57:08;100193.28;;;15.64;100.00
41862;BME280;27537;57.134;-2.136;2023-07-13T03:59:35;100191.47;;;15.65;100.00
41862;BME280;27537;57.134;-2.136;2023-07-13T04:02:02;100201.97;;;15.79;100.00
41862;BME280;27537;57.134;-2.136;2023-07-13T04:04:30;100210.03;;;15.90;100.00
41862;BME280;27537;57.134;-2.136;2023-07-13T04:06:57;100205.75;;;15.62;100.00
41862;BME280;27537;57.134;-2.136;2023-07-13T04:09:25;100204.28;;;15.71;100.00
41862;BME280;27537;57.134;-2.136;2023-07-13T04:11:51;100204.63;;;15.79;100.00
41862;BME280;27537;57.134;-2.136;2023-07-13T04:14:18;100201.47;;;15.87;100.00
41862;BME280;27537;57.134;-2.136;2023-07-13T04:16:45;100196.41;;;15.84;100.00
41862;BME280;27537;57.134;-2.136;2023-07-13T04:19:12;100209.16;;;15.90;100.00
41862;BME280;27537;57.134;-2.136;2023-07-13T04:21:39;100206.66;;;15.88;100.00
41862;BME280;27537;57.134;-2.136;2023-07-13T04:24:06;100204.41;;;15.82;100.00
41862;BME280;27537;57.134;-2.136;2023-07-13T04:26:34;100207.50;;;15.89;100.00
41862;BME280;27537;57.134;-2.136;2023-07-13T04:29:02;100209.69;;;15.95;100.00
41862;BME280;27537;57.134;-2.136;2023-07-13T04:31:31;100212.88;;;16.00;100.00
41862;BME280;27537;57.134;-2.136;2023-07-13T04:33:57;100210.13;;;16.02;100.00
41862;BME280;27537;57.134;-2.136;2023-07-13T04:36:25;100223.66;;;16.10;100.00
41862;BME280;27537;57.134;-2.136;2023-07-13T04:38:53;100221.84;;;16.10;100.00
41862;BME280;27537;57.134;-2.136;2023-07-13T04:41:21;100224.16;;;16.02;100.00
41862;BME280;27537;57.134;-2.136;2023-07-13T04:43:48;100204.75;;;15.90;100.00
41862;BME280;27537;57.134;-2.136;2023-07-13T04:46:16;100225.88;;;16.03;100.00
41862;BME280;27537;57.134;-2.136;2023-07-13T04:48:49;100222.25;;;15.91;100.00
41862;BME280;27537;57.134;-2.136;2023-07-13T04:51:17;100212.88;;;15.87;100.00
41862;BME280;27537;57.134;-2.136;2023-07-13T04:53:44;100226.94;;;16.01;100.00
41862;BME280;27537;57.134;-2.136;2023-07-13T04:56:10;100222.06;;;16.07;100.00
41862;BME280;27537;57.134;-2.136;2023-07-13T04:58:38;100230.53;;;16.00;100.00
41862;BME280;27537;57.134;-2.136;2023-07-13T05:01:05;100232.53;;;16.09;100.00
41862;BME280;27537;57.134;-2.136;2023-07-13T05:03:33;100227.78;;;16.14;100.00
41862;BME280;27537;57.134;-2.136;2023-07-13T05:06:05;100232.22;;;16.13;100.00
41862;BME280;27537;57.134;-2.136;2023-07-13T05:08:32;100234.44;;;16.07;100.00
41862;BME280;27537;57.134;-2.136;2023-07-13T05:11:00;100232.94;;;16.16;100.00
41862;BME280;27537;57.134;-2.136;2023-07-13T05:13:27;100233.78;;;16.16;100.00
41862;BME280;27537;57.134;-2.136;2023-07-13T05:16:04;100245.00;;;16.20;100.00
41862;BME280;27537;57.134;-2.136;2023-07-13T05:18:31;100238.25;;;16.16;100.00
41862;BME280;27537;57.134;-2.136;2023-07-13T05:21:03;100237.94;;;16.20;100.00
41862;BME280;27537;57.134;-2.136;2023-07-13T05:23:31;100231.81;;;16.32;100.00
41862;BME280;27537;57.134;-2.136;2023-07-13T05:25:58;100242.03;;;16.37;100.00
41862;BME280;27537;57.134;-2.136;2023-07-13T05:28:26;100222.59;;;16.38;100.00
41862;BME280;27537;57.134;-2.136;2023-07-13T05:30:54;100233.47;;;16.33;100.00
41862;BME280;27537;57.134;-2.136;2023-07-13T05:33:21;100234.66;;;16.29;100.00
41862;BME280;27537;57.134;-2.136;2023-07-13T05:35:48;100234.41;;;16.45;100.00
41862;BME280;27537;57.134;-2.136;2023-07-13T05:38:15;100245.03;;;16.69;100.00
41862;BME280;27537;57.134;-2.136;2023-07-13T05:40:45;100248.19;;;16.75;100.00
41862;BME280;27537;57.134;-2.136;2023-07-13T05:43:13;100241.75;;;16.92;100.00
41862;BME280;27537;57.134;-2.136;2023-07-13T05:45:41;100250.00;;;16.87;100.00
41862;BME280;27537;57.134;-2.136;2023-07-13T05:48:07;100249.59;;;16.80;100.00
41862;BME280;27537;57.134;-2.136;2023-07-13T05:50:34;100249.69;;;16.92;100.00
41862;BME280;27537;57.134;-2.136;2023-07-13T05:53:01;100251.97;;;16.96;100.00
41862;BME280;27537;57.134;-2.136;2023-07-13T05:55:27;100249.81;;;17.38;100.00
41862;BME280;27537;57.134;-2.136;2023-07-13T05:57:54;100254.63;;;18.04;100.00
41862;BME280;27537;57.134;-2.136;2023-07-13T06:00:21;100265.53;;;18.91;100.00
41862;BME280;27537;57.134;-2.136;2023-07-13T06:02:47;100259.50;;;18.55;100.00
41862;BME280;27537;57.134;-2.136;2023-07-13T06:05:14;100271.06;;;18.77;100.00
41862;BME280;27537;57.134;-2.136;2023-07-13T06:07:41;100264.31;;;18.95;100.00
41862;BME280;27537;57.134;-2.136;2023-07-13T06:10:09;100271.53;;;18.71;100.00
41862;BME280;27537;57.134;-2.136;2023-07-13T06:12:36;100269.25;;;18.32;100.00
41862;BME280;27537;57.134;-2.136;2023-07-13T06:15:03;100277.19;;;18.21;100.00
41862;BME280;27537;57.134;-2.136;2023-07-13T06:17:30;100271.31;;;18.40;100.00
41862;BME280;27537;57.134;-2.136;2023-07-13T06:19:57;100282.88;;;18.62;100.00
41862;BME280;27537;57.134;-2.136;2023-07-13T06:22:23;100284.81;;;18.82;100.00
41862;BME280;27537;57.134;-2.136;2023-07-13T06:24:51;100274.97;;;18.84;100.00
41862;BME280;27537;57.134;-2.136;2023-07-13T06:27:17;100292.13;;;18.78;100.00
41862;BME280;27537;57.134;-2.136;2023-07-13T06:29:44;100290.34;;;18.56;100.00
41862;BME280;27537;57.134;-2.136;2023-07-13T06:32:11;100285.88;;;18.46;100.00
41862;BME280;27537;57.134;-2.136;2023-07-13T06:34:38;100283.94;;;18.59;100.00
41862;BME280;27537;57.134;-2.136;2023-07-13T06:37:09;100301.97;;;18.89;100.00
41862;BME280;27537;57.134;-2.136;2023-07-13T06:39:36;100300.94;;;18.68;100.00
41862;BME280;27537;57.134;-2.136;2023-07-13T06:42:03;100305.06;;;18.49;100.00
41862;BME280;27537;57.134;-2.136;2023-07-13T06:44:29;100302.03;;;18.65;100.00
41862;BME280;27537;57.134;-2.136;2023-07-13T06:46:56;100306.78;;;18.84;100.00
41862;BME280;27537;57.134;-2.136;2023-07-13T06:49:23;100311.94;;;18.63;100.00
41862;BME280;27537;57.134;-2.136;2023-07-13T06:51:49;100309.03;;;18.77;100.00
41862;BME280;27537;57.134;-2.136;2023-07-13T06:54:16;100302.28;;;18.62;100.00
41862;BME280;27537;57.134;-2.136;2023-07-13T06:56:43;100311.22;;;18.72;100.00
41862;BME280;27537;57.134;-2.136;2023-07-13T06:59:09;100317.84;;;18.67;100.00
41862;BME280;27537;57.134;-2.136;2023-07-13T07:01:36;100307.94;;;18.46;100.00
41862;BME280;27537;57.134;-2.136;2023-07-13T07:04:06;100298.78;;;18.39;100.00
41862;BME280;27537;57.134;-2.136;2023-07-13T07:06:33;100312.75;;;18.75;100.00
41862;BME280;27537;57.134;-2.136;2023-07-13T07:09:00;100318.69;;;19.01;100.00
41862;BME280;27537;57.134;-2.136;2023-07-13T07:11:27;100320.75;;;19.09;100.00
41862;BME280;27537;57.134;-2.136;2023-07-13T07:13:54;100317.84;;;19.56;100.00
41862;BME280;27537;57.134;-2.136;2023-07-13T07:16:21;100317.22;;;20.38;100.00
41862;BME280;27537;57.134;-2.136;2023-07-13T07:18:48;100330.38;;;20.60;100.00
41862;BME280;27537;57.134;-2.136;2023-07-13T07:21:15;100329.31;;;20.42;100.00
41862;BME280;27537;57.134;-2.136;2023-07-13T07:23:42;100318.53;;;20.43;100.00
41862;BME280;27537;57.134;-2.136;2023-07-13T07:26:09;100327.81;;;20.70;100.00
41862;BME280;27537;57.134;-2.136;2023-07-13T07:28:36;100327.50;;;20.52;100.00
41862;BME280;27537;57.134;-2.136;2023-07-13T07:31:06;100328.31;;;20.43;100.00
41862;BME280;27537;57.134;-2.136;2023-07-13T07:33:36;100337.31;;;20.52;100.00
41862;BME280;27537;57.134;-2.136;2023-07-13T07:36:03;100320.63;;;20.40;100.00
41862;BME280;27537;57.134;-2.136;2023-07-13T07:38:33;100330.69;;;20.36;100.00
41862;BME280;27537;57.134;-2.136;2023-07-13T07:41:03;100323.19;;;19.88;100.00
41862;BME280;27537;57.134;-2.136;2023-07-13T07:43:34;100337.47;;;19.87;100.00
41862;BME280;27537;57.134;-2.136;2023-07-13T07:46:01;100337.19;;;20.11;100.00
41862;BME280;27537;57.134;-2.136;2023-07-13T07:48:29;100341.81;;;20.30;100.00
41862;BME280;27537;57.134;-2.136;2023-07-13T07:50:56;100343.47;;;19.89;100.00
41862;BME280;27537;57.134;-2.136;2023-07-13T07:53:23;100331.50;;;19.51;100.00
41862;BME280;27537;57.134;-2.136;2023-07-13T07:55:49;100342.50;;;19.35;100.00
41862;BME280;27537;57.134;-2.136;2023-07-13T07:58:20;100338.94;;;19.80;100.00
41862;BME280;27537;57.134;-2.136;2023-07-13T08:00:50;100341.72;;;19.78;100.00
41862;BME280;27537;57.134;-2.136;2023-07-13T08:03:19;100343.16;;;19.71;100.00
41862;BME280;27537;57.134;-2.136;2023-07-13T08:05:52;100338.38;;;19.53;100.00
41862;BME280;27537;57.134;-2.136;2023-07-13T08:08:39;100342.88;;;19.42;100.00
41862;BME280;27537;57.134;-2.136;2023-07-13T08:11:07;100319.00;;;19.74;100.00
41862;BME280;27537;57.134;-2.136;2023-07-13T08:13:37;100346.88;;;20.12;100.00
41862;BME280;27537;57.134;-2.136;2023-07-13T08:16:05;100345.03;;;19.48;100.00
41862;BME280;27537;57.134;-2.136;2023-07-13T08:18:32;100342.91;;;19.74;100.00
41862;BME280;27537;57.134;-2.136;2023-07-13T08:21:06;100349.78;;;19.65;100.00
41862;BME280;27537;57.134;-2.136;2023-07-13T08:23:34;100347.81;;;20.11;100.00
41862;BME280;27537;57.134;-2.136;2023-07-13T08:26:01;100352.63;;;19.96;100.00
41862;BME280;27537;57.134;-2.136;2023-07-13T08:28:28;100348.47;;;20.03;100.00
41862;BME280;27537;57.134;-2.136;2023-07-13T08:30:55;100344.75;;;19.73;100.00
41862;BME280;27537;57.134;-2.136;2023-07-13T08:33:22;100343.34;;;19.47;100.00
41862;BME280;27537;57.134;-2.136;2023-07-13T08:35:50;100345.44;;;19.32;100.00
41862;BME280;27537;57.134;-2.136;2023-07-13T08:38:18;100348.00;;;19.00;100.00
41862;BME280;27537;57.134;-2.136;2023-07-13T08:40:51;100337.31;;;19.45;100.00
41862;BME280;27537;57.134;-2.136;2023-07-13T08:43:23;100348.28;;;19.51;100.00
41862;BME280;27537;57.134;-2.136;2023-07-13T08:46:19;100345.72;;;19.61;100.00
41862;BME280;27537;57.134;-2.136;2023-07-13T08:48:52;100358.91;;;19.40;100.00
41862;BME280;27537;57.134;-2.136;2023-07-13T08:51:33;100355.19;;;19.43;100.00
41862;BME280;27537;57.134;-2.136;2023-07-13T08:54:04;100360.25;;;19.34;100.00
41862;BME280;27537;57.134;-2.136;2023-07-13T08:56:35;100357.97;;;19.41;100.00
41862;BME280;27537;57.134;-2.136;2023-07-13T08:59:11;100352.41;;;19.33;100.00
41862;BME280;27537;57.134;-2.136;2023-07-13T09:04:53;100351.94;;;19.28;100.00
41862;BME280;27537;57.134;-2.136;2023-07-13T09:07:44;100360.84;;;18.59;100.00
41862;BME280;27537;57.134;-2.136;2023-07-13T09:10:18;100352.44;;;19.22;100.00
41862;BME280;27537;57.134;-2.136;2023-07-13T09:15:40;100330.50;;;19.08;100.00
41862;BME280;27537;57.134;-2.136;2023-07-13T09:18:10;100345.81;;;18.82;100.00
41862;BME280;27537;57.134;-2.136;2023-07-13T09:20:46;100347.47;;;18.38;100.00
41862;BME280;27537;57.134;-2.136;2023-07-13T09:23:17;100335.50;;;18.32;100.00
41862;BME280;27537;57.134;-2.136;2023-07-13T09:25:53;100349.72;;;18.43;100.00
41862;BME280;27537;57.134;-2.136;2023-07-13T09:28:27;100346.66;;;18.13;100.00
41862;BME280;27537;57.134;-2.136;2023-07-13T09:31:23;100342.88;;;18.40;100.00
41862;BME280;27537;57.134;-2.136;2023-07-13T09:33:50;100348.50;;;18.24;100.00
41862;BME280;27537;57.134;-2.136;2023-07-13T09:38:47;100336.13;;;18.58;100.00
41862;BME280;27537;57.134;-2.136;2023-07-13T09:42:21;100357.44;;;18.34;100.00
41862;BME280;27537;57.134;-2.136;2023-07-13T09:44:18;100360.31;;;18.31;100.00
41862;BME280;27537;57.134;-2.136;2023-07-13T09:46:54;100363.00;;;18.07;100.00
41862;BME280;27537;57.134;-2.136;2023-07-13T09:49:28;100357.78;;;17.94;100.00
41862;BME280;27537;57.134;-2.136;2023-07-13T09:52:03;100351.75;;;17.68;100.00
41862;BME280;27537;57.134;-2.136;2023-07-13T09:54:34;100356.81;;;17.71;100.00
41862;BME280;27537;57.134;-2.136;2023-07-13T09:57:02;100375.88;;;17.63;100.00
41862;BME280;27537;57.134;-2.136;2023-07-13T09:59:40;100375.06;;;17.39;100.00
41862;BME280;27537;57.134;-2.136;2023-07-13T10:02:26;100378.63;;;17.38;100.00
41862;BME280;27537;57.134;-2.136;2023-07-13T10:05:14;100366.88;;;17.42;100.00
41862;BME280;27537;57.134;-2.136;2023-07-13T10:07:45;100381.06;;;17.65;100.00
41862;BME280;27537;57.134;-2.136;2023-07-13T10:10:16;100380.25;;;17.64;100.00
41862;BME280;27537;57.134;-2.136;2023-07-13T10:12:47;100391.03;;;17.24;100.00
41862;BME280;27537;57.134;-2.136;2023-07-13T10:15:24;100384.63;;;17.03;100.00
41862;BME280;27537;57.134;-2.136;2023-07-13T10:17:54;100355.63;;;17.14;100.00
41862;BME280;27537;57.134;-2.136;2023-07-13T10:20:22;100386.31;;;17.17;100.00
41862;BME280;27537;57.134;-2.136;2023-07-13T10:23:05;100374.88;;;16.78;100.00
41862;BME280;27537;57.134;-2.136;2023-07-13T10:25:39;100379.56;;;16.61;100.00
41862;BME280;27537;57.134;-2.136;2023-07-13T10:30:52;100394.53;;;16.61;100.00
41862;BME280;27537;57.134;-2.136;2023-07-13T10:33:20;100403.63;;;16.69;100.00
41862;BME280;27537;57.134;-2.136;2023-07-13T10:35:51;100401.81;;;16.44;100.00
41862;BME280;27537;57.134;-2.136;2023-07-13T10:38:22;100397.72;;;16.40;100.00
41862;BME280;27537;57.134;-2.136;2023-07-13T10:41:09;100406.19;;;16.58;100.00
41862;BME280;27537;57.134;-2.136;2023-07-13T10:43:52;100405.34;;;16.58;100.00
41862;BME280;27537;57.134;-2.136;2023-07-13T10:46:21;100408.53;;;16.63;100.00
41862;BME280;27537;57.134;-2.136;2023-07-13T10:48:52;100403.88;;;17.05;100.00
41862;BME280;27537;57.134;-2.136;2023-07-13T10:51:21;100407.91;;;17.11;100.00
41862;BME280;27537;57.134;-2.136;2023-07-13T10:54:14;100414.94;;;17.36;100.00
41862;BME280;27537;57.134;-2.136;2023-07-13T10:56:48;100412.75;;;17.17;100.00
41862;BME280;27537;57.134;-2.136;2023-07-13T10:59:24;100423.22;;;17.31;100.00
41862;BME280;27537;57.134;-2.136;2023-07-13T11:04:43;100432.63;;;16.58;100.00
41862;BME280;27537;57.134;-2.136;2023-07-13T11:07:23;100425.84;;;16.67;100.00
41862;BME280;27537;57.134;-2.136;2023-07-13T11:09:56;100422.56;;;16.63;100.00
41862;BME280;27537;57.134;-2.136;2023-07-13T11:17:37;100417.66;;;16.84;100.00
41862;BME280;27537;57.134;-2.136;2023-07-13T11:22:52;100428.94;;;16.74;100.00
41862;BME280;27537;57.134;-2.136;2023-07-13T11:27:51;100437.41;;;17.04;100.00
41862;BME280;27537;57.134;-2.136;2023-07-13T11:35:36;100432.47;;;17.00;100.00
41862;BME280;27537;57.134;-2.136;2023-07-13T11:38:14;100430.16;;;17.45;100.00
41862;BME280;27537;57.134;-2.136;2023-07-13T11:40:43;100428.59;;;17.42;100.00
41862;BME280;27537;57.134;-2.136;2023-07-13T11:43:13;100425.84;;;17.31;100.00
41862;BME280;27537;57.134;-2.136;2023-07-13T11:45:42;100430.84;;;17.36;100.00
41862;BME280;27537;57.134;-2.136;2023-07-13T11:48:25;100423.38;;;17.54;100.00
41862;BME280;27537;57.134;-2.136;2023-07-13T11:50:58;100431.34;;;17.41;100.00
41862;BME280;27537;57.134;-2.136;2023-07-13T11:53:28;100419.28;;;17.37;100.00
41862;BME280;27537;57.134;-2.136;2023-07-13T11:55:57;100429.72;;;17.64;100.00
41862;BME280;27537;57.134;-2.136;2023-07-13T11:58:26;100429.09;;;17.60;100.00
41862;BME280;27537;57.134;-2.136;2023-07-13T12:00:58;100429.34;;;17.44;100.00
41862;BME280;27537;57.134;-2.136;2023-07-13T12:03:27;100421.25;;;17.59;100.00
41862;BME280;27537;57.134;-2.136;2023-07-13T12:06:03;100429.81;;;17.13;100.00
41862;BME280;27537;57.134;-2.136;2023-07-13T12:08:38;100411.59;;;17.08;100.00
41862;BME280;27537;57.134;-2.136;2023-07-13T12:11:15;100417.09;;;17.05;100.00
41862;BME280;27537;57.134;-2.136;2023-07-13T12:13:44;100410.72;;;17.33;100.00
41862;BME280;27537;57.134;-2.136;2023-07-13T12:16:15;100406.41;;;17.06;100.00
41862;BME280;27537;57.134;-2.136;2023-07-13T12:18:43;100409.16;;;17.18;100.00
41862;BME280;27537;57.134;-2.136;2023-07-13T12:21:17;100408.31;;;17.04;100.00
41862;BME280;27537;57.134;-2.136;2023-07-13T12:23:47;100403.66;;;17.08;100.00
41862;BME280;27537;57.134;-2.136;2023-07-13T12:26:17;100397.97;;;17.14;100.00
41862;BME280;27537;57.134;-2.136;2023-07-13T12:28:49;100411.38;;;17.24;100.00
41862;BME280;27537;57.134;-2.136;2023-07-13T12:31:42;100410.72;;;17.70;100.00
41862;BME280;27537;57.134;-2.136;2023-07-13T12:34:17;100410.25;;;17.52;100.00
41862;BME280;27537;57.134;-2.136;2023-07-13T12:37:11;100408.53;;;17.64;100.00
41862;BME280;27537;57.134;-2.136;2023-07-13T12:39:46;100397.44;;;17.09;100.00
41862;BME280;27537;57.134;-2.136;2023-07-13T12:44:45;100405.88;;;18.01;100.00
41862;BME280;27537;57.134;-2.136;2023-07-13T12:47:14;100414.22;;;17.71;100.00
41862;BME280;27537;57.134;-2.136;2023-07-13T12:49:48;100408.97;;;17.58;100.00
41862;BME280;27537;57.134;-2.136;2023-07-13T12:52:17;100417.13;;;18.16;100.00
41862;BME280;27537;57.134;-2.136;2023-07-13T12:54:57;100424.13;;;18.17;100.00
41862;BME280;27537;57.134;-2.136;2023-07-13T12:57:32;100410.25;;;17.89;100.00
41862;BME280;27537;57.134;-2.136;2023-07-13T13:00:06;100403.47;;;18.09;100.00
41862;BME280;27537;57.134;-2.136;2023-07-13T13:02:49;100423.38;;;17.91;100.00
41862;BME280;27537;57.134;-2.136;2023-07-13T13:05:17;100422.34;;;18.29;100.00
41862;BME280;27537;57.134;-2.136;2023-07-13T13:07:44;100417.66;;;18.32;100.00
41862;BME280;27537;57.134;-2.136;2023-07-13T13:10:14;100414.25;;;18.66;100.00
41862;BME280;27537;57.134;-2.136;2023-07-13T13:12:41;100413.00;;;18.94;100.00
41862;BME280;27537;57.134;-2.136;2023-07-13T13:15:12;100415.91;;;19.25;100.00
41862;BME280;27537;57.134;-2.136;2023-07-13T13:17:39;100413.97;;;18.93;100.00